Rickmers Seoul — V7EI5 — position and weather

sailwx.info

Track history (hours):
 
Tides and Currents Weather Stations Pressure Air Temp Water Temp Dewpoint Dewpoint Depression Visibility Wind Speed Wind Dir Waves Ship Positions

Rickmers Seoul

Last reported at 2015-Apr-03 15:07 UTC. Time now 2015-May-03 20:54 UTC.
Position N 34°55' E 140°13'.
Warning: this ship's position is 30 days out of date.

Length 192.9 m; beam 27.8 m; draft 11.2 m.

Type: Ship. MMSI: 538001809.

Date/timePositionNaut miles runAvg speedWind from/ knotsBaromVisibWave heightAir tempDewpointWater temp
2015-Apr-03 15:07N 34°55' E 140°13'26 7.4
2015-Apr-03 11:32N 35°09' E 139°45'9 9.1
2015-Apr-03 10:33N 35°17' E 139°45'1110.4
2015-Apr-03 09:31N 35°27' E 139°39'0 0.3
2015-Apr-03 08:32N 35°27' E 139°39'0 0.0
2015-Apr-03 07:23N 35°27' E 139°39'0 0.0
2015-Apr-03 06:32N 35°27' E 139°39'0 0.0
2015-Apr-03 04:26N 35°27' E 139°39'0 0.0
2015-Apr-03 03:23N 35°27' E 139°39'0 0.0
2015-Apr-03 01:08N 35°27' E 139°39'0 0.0
2015-Apr-03 00:32N 35°27' E 139°39'0 0.0
2015-Apr-02 23:32N 35°27' E 139°39'0 0.0
2015-Apr-02 22:32N 35°27' E 139°39'2 2.3
2015-Apr-02 21:33N 35°27' E 139°42'9 9.2
2015-Apr-02 20:33N 35°18' E 139°45'10 9.8
2015-Apr-02 19:33N 35°08' E 139°47'3 3.1
2015-Apr-02 18:32N 35°05' E 139°45'247 9.4
2015-Apr-01 16:25N 33°58' E 134°57'1113.2
2015-Apr-01 15:33N 34°09' E 134°57'1413.8
2015-Apr-01 14:33N 34°23' E 135°01'1616.2
2015-Apr-01 13:34N 34°35' E 135°15'6 5.2
2015-Apr-01 12:29N 34°40' E 135°14'0 0.0
2015-Apr-01 11:23N 34°40' E 135°14'0 0.0
2015-Apr-01 10:29N 34°40' E 135°14'0 0.0
2015-Apr-01 09:23N 34°40' E 135°14'0 0.0
2015-Apr-01 08:29N 34°40' E 135°14'0 0.0
2015-Apr-01 07:23N 34°40' E 135°14'0 0.0
2015-Apr-01 06:29N 34°40' E 135°14'0 0.0
2015-Apr-01 05:17N 34°40' E 135°14'0 0.0
2015-Apr-01 04:29N 34°40' E 135°14'0 0.0
2015-Apr-01 03:33N 34°40' E 135°14'0 0.0
2015-Apr-01 02:27N 34°40' E 135°14'0 0.0
2015-Apr-01 01:33N 34°40' E 135°14'0 0.0
2015-Apr-01 00:33N 34°40' E 135°14'0 0.0
2015-Mar-31 23:33N 34°40' E 135°14'0 0.0
2015-Mar-31 22:27N 34°40' E 135°14'0 0.0
2015-Mar-31 21:27N 34°40' E 135°14'0 0.0
2015-Mar-31 20:33N 34°40' E 135°14'0 0.0
2015-Mar-31 19:33N 34°40' E 135°14'0 0.0
2015-Mar-31 18:33N 34°40' E 135°14'0 0.0
2015-Mar-31 17:27N 34°40' E 135°14'0 0.0
2015-Mar-31 16:33N 34°40' E 135°14'0 0.0
2015-Mar-31 15:27N 34°40' E 135°14'0 0.0
2015-Mar-31 14:33N 34°40' E 135°14'0 0.0
2015-Mar-31 13:33N 34°40' E 135°14'0 0.0
2015-Mar-31 12:33N 34°40' E 135°14'0 0.0
2015-Mar-31 11:27N 34°40' E 135°14'0 0.0
2015-Mar-31 10:33N 34°40' E 135°14'0 0.0
2015-Mar-31 09:33N 34°40' E 135°14'0 0.0
2015-Mar-31 08:33N 34°40' E 135°14'0 0.0
2015-Mar-31 07:27N 34°40' E 135°14'0 0.0
2015-Mar-31 06:33N 34°40' E 135°14'0 0.0
2015-Mar-31 05:33N 34°40' E 135°14'0 0.0
2015-Mar-31 04:33N 34°40' E 135°14'0 0.0
2015-Mar-31 03:33N 34°40' E 135°14'0 0.0
2015-Mar-31 02:33N 34°40' E 135°14'0 0.0
2015-Mar-31 01:33N 34°40' E 135°14'0 0.0
2015-Mar-31 00:33N 34°40' E 135°14'0 0.0
2015-Mar-30 23:33N 34°40' E 135°14'0 0.0
2015-Mar-30 22:33N 34°40' E 135°14'0 0.0
2015-Mar-30 21:33N 34°40' E 135°14'0 0.0
2015-Mar-30 20:33N 34°40' E 135°14'0 0.0
2015-Mar-30 19:27N 34°40' E 135°14'0 0.0
2015-Mar-30 18:33N 34°40' E 135°14'0 0.0
2015-Mar-30 17:33N 34°40' E 135°14'0 0.0
2015-Mar-30 16:33N 34°40' E 135°14'0 0.0
2015-Mar-30 15:33N 34°40' E 135°14'0 0.0
2015-Mar-30 14:33N 34°40' E 135°14'0 0.0
2015-Mar-30 13:33N 34°40' E 135°14'0 0.0
2015-Mar-30 12:33N 34°40' E 135°14'0 0.0
2015-Mar-30 11:33N 34°40' E 135°14'2 2.1
2015-Mar-30 10:33N 34°39' E 135°16'1212.5
2015-Mar-30 09:33N 34°28' E 135°09'1615.7
2015-Mar-30 08:33N 34°14' E 134°59'1010.1
2015-Mar-30 07:31N 34°04' E 134°59'206 9.2
2015-Mar-29 09:06N 34°01' E 130°51'5 8.8
2015-Mar-29 08:33N 34°04' E 130°47'  
Track history (hours):
 
Tides and Currents Weather Stations Pressure Air Temp Water Temp Dewpoint Dewpoint Depression Visibility Wind Speed Wind Dir Waves Ship Positions

Rickmers Seoul

Last reported at 2015-Apr-03 15:07 UTC. Time now 2015-May-03 20:54 UTC.
Position N 34°55' E 140°13'.
Warning: this ship's position is 30 days out of date.

Length 192.9 m; beam 27.8 m; draft 11.2 m.

Type: Ship. MMSI: 538001809.

Date/timePositionNaut miles runAvg speedWind from/ knotsBaromVisibWave heightAir tempDewpointWater temp
2015-Apr-03 15:07N 34°55' E 140°13'26 7.4
2015-Apr-03 11:32N 35°09' E 139°45'9 9.1
2015-Apr-03 10:33N 35°17' E 139°45'1110.4
2015-Apr-03 09:31N 35°27' E 139°39'0 0.3
2015-Apr-03 08:32N 35°27' E 139°39'0 0.0
2015-Apr-03 07:23N 35°27' E 139°39'0 0.0
2015-Apr-03 06:32N 35°27' E 139°39'0 0.0
2015-Apr-03 04:26N 35°27' E 139°39'0 0.0
2015-Apr-03 03:23N 35°27' E 139°39'0 0.0
2015-Apr-03 01:08N 35°27' E 139°39'0 0.0
2015-Apr-03 00:32N 35°27' E 139°39'0 0.0
2015-Apr-02 23:32N 35°27' E 139°39'0 0.0
2015-Apr-02 22:32N 35°27' E 139°39'2 2.3
2015-Apr-02 21:33N 35°27' E 139°42'9 9.2
2015-Apr-02 20:33N 35°18' E 139°45'10 9.8
2015-Apr-02 19:33N 35°08' E 139°47'3 3.1
2015-Apr-02 18:32N 35°05' E 139°45'247 9.4
2015-Apr-01 16:25N 33°58' E 134°57'1113.2
2015-Apr-01 15:33N 34°09' E 134°57'1413.8
2015-Apr-01 14:33N 34°23' E 135°01'1616.2
2015-Apr-01 13:34N 34°35' E 135°15'6 5.2
2015-Apr-01 12:29N 34°40' E 135°14'0 0.0
2015-Apr-01 11:23N 34°40' E 135°14'0 0.0
2015-Apr-01 10:29N 34°40' E 135°14'0 0.0
2015-Apr-01 09:23N 34°40' E 135°14'0 0.0
2015-Apr-01 08:29N 34°40' E 135°14'0 0.0
2015-Apr-01 07:23N 34°40' E 135°14'0 0.0
2015-Apr-01 06:29N 34°40' E 135°14'0 0.0
2015-Apr-01 05:17N 34°40' E 135°14'0 0.0
2015-Apr-01 04:29N 34°40' E 135°14'0 0.0
2015-Apr-01 03:33N 34°40' E 135°14'0 0.0
2015-Apr-01 02:27N 34°40' E 135°14'0 0.0
2015-Apr-01 01:33N 34°40' E 135°14'0 0.0
2015-Apr-01 00:33N 34°40' E 135°14'0 0.0
2015-Mar-31 23:33N 34°40' E 135°14'0 0.0
2015-Mar-31 22:27N 34°40' E 135°14'0 0.0
2015-Mar-31 21:27N 34°40' E 135°14'0 0.0
2015-Mar-31 20:33N 34°40' E 135°14'0 0.0
2015-Mar-31 19:33N 34°40' E 135°14'0 0.0
2015-Mar-31 18:33N 34°40' E 135°14'0 0.0
2015-Mar-31 17:27N 34°40' E 135°14'0 0.0
2015-Mar-31 16:33N 34°40' E 135°14'0 0.0
2015-Mar-31 15:27N 34°40' E 135°14'0 0.0
2015-Mar-31 14:33N 34°40' E 135°14'0 0.0
2015-Mar-31 13:33N 34°40' E 135°14'0 0.0
2015-Mar-31 12:33N 34°40' E 135°14'0 0.0
2015-Mar-31 11:27N 34°40' E 135°14'0 0.0
2015-Mar-31 10:33N 34°40' E 135°14'0 0.0
2015-Mar-31 09:33N 34°40' E 135°14'0 0.0
2015-Mar-31 08:33N 34°40' E 135°14'0 0.0
2015-Mar-31 07:27N 34°40' E 135°14'0 0.0
2015-Mar-31 06:33N 34°40' E 135°14'0 0.0
2015-Mar-31 05:33N 34°40' E 135°14'0 0.0
2015-Mar-31 04:33N 34°40' E 135°14'0 0.0
2015-Mar-31 03:33N 34°40' E 135°14'0 0.0
2015-Mar-31 02:33N 34°40' E 135°14'0 0.0
2015-Mar-31 01:33N 34°40' E 135°14'0 0.0
2015-Mar-31 00:33N 34°40' E 135°14'0 0.0
2015-Mar-30 23:33N 34°40' E 135°14'0 0.0
2015-Mar-30 22:33N 34°40' E 135°14'0 0.0
2015-Mar-30 21:33N 34°40' E 135°14'0 0.0
2015-Mar-30 20:33N 34°40' E 135°14'0 0.0
2015-Mar-30 19:27N 34°40' E 135°14'0 0.0
2015-Mar-30 18:33N 34°40' E 135°14'0 0.0
2015-Mar-30 17:33N 34°40' E 135°14'0 0.0
2015-Mar-30 16:33N 34°40' E 135°14'0 0.0
2015-Mar-30 15:33N 34°40' E 135°14'0 0.0
2015-Mar-30 14:33N 34°40' E 135°14'0 0.0
2015-Mar-30 13:33N 34°40' E 135°14'0 0.0
2015-Mar-30 12:33N 34°40' E 135°14'0 0.0
2015-Mar-30 11:33N 34°40' E 135°14'2 2.1
2015-Mar-30 10:33N 34°39' E 135°16'1212.5
2015-Mar-30 09:33N 34°28' E 135°09'1615.7
2015-Mar-30 08:33N 34°14' E 134°59'1010.1
2015-Mar-30 07:31N 34°04' E 134°59'206 9.2
2015-Mar-29 09:06N 34°01' E 130°51'5 8.8
2015-Mar-29 08:33N 34°04' E 130°47'  

Dump ship's entire track history